^^
Datos históricos de la estación: Murcia-Puente Tocinos
Diario Informe para Octubre 6, 2019 Unidades:  Métrico    Ingés   Ambas
Diario Semanal Mensual Anual
  Máxima: Mínima: Promedio:
Temperatura: 30 °C 17.7 °C 23 °C
Punto de rocio: 19.8 °C 13.2 °C 16.7 °C
Humedad: 87% 37.1% 70%
Velocidad viento: 15.6km/h 0km/h 5.9km/h
Racha viento: 25.9km/h - -
Viento- - SE
Presión: 1016.9 hPa 1013.8 hPa -
Precipitación: 0.0 mm    
 
 
Tabla de datos para Octubre 6, 2019
Hora Temperatura Punto de rocio Presión Viento Velocidad viento Racha viento Humedad Intensidad lluvia(por hora) Nubes
00:04 20.9 °C 16.2 °C 1015.1 hPa NE 2.2 km/h 3.2 km/h 74.8% 0.0 mm
00:09 20.9 °C 16.2 °C 1015.0 hPa ESE 2.2 km/h 5.8 km/h 74.7% 0.0 mm
00:14 20.9 °C 16.2 °C 1015.0 hPa SSE 2.2 km/h 8 km/h 74.4% 0.0 mm
00:19 20.9 °C 16.3 °C 1015.2 hPa Sur 2.6 km/h 8 km/h 75% 0.0 mm
00:24 20.9 °C 16.3 °C 1015.2 hPa SSO 4.7 km/h 8 km/h 75% 0.0 mm
00:29 20.9 °C 16.5 °C 1015.2 hPa SSO 4.7 km/h 8 km/h 75.9% 0.0 mm
00:34 20.9 °C 16.7 °C 1015.2 hPa SSO 4.7 km/h 8 km/h 76.8% 0.0 mm
00:39 21.1 °C 16.9 °C 1015.2 hPa SSO 4.7 km/h 8 km/h 77% 0.0 mm
00:44 21.2 °C 16.8 °C 1015.2 hPa Sur 4.7 km/h 8 km/h 76.3% 0.0 mm
00:49 21.2 °C 16.6 °C 1015.2 hPa Sur 4.7 km/h 8 km/h 75.2% 0.0 mm
00:54 21.2 °C 16.6 °C 1015.0 hPa Sur 4.7 km/h 10 km/h 75% 0.0 mm
00:59 21.1 °C 16.5 °C 1015.0 hPa Sur 5.1 km/h 11.1 km/h 75% 0.0 mm
01:04 21.1 °C 16.6 °C 1015.0 hPa SSO 6.9 km/h 11.3 km/h 75.4% 0.0 mm
01:09 21 °C 16.6 °C 1015.0 hPa SSO 7 km/h 11.3 km/h 76% 0.0 mm
01:14 21 °C 16.6 °C 1015.0 hPa SSO 7.6 km/h 9.7 km/h 76.1% 0.0 mm
01:19 21 °C 16.8 °C 1015.0 hPa SSO 7.4 km/h 10.3 km/h 77% 0.0 mm
01:24 21.1 °C 17 °C 1015.0 hPa SO 6.5 km/h 13 km/h 77.9% 0.0 mm
01:29 21.1 °C 17.3 °C 1015.0 hPa SO 6.5 km/h 12.9 km/h 78.8% 0.0 mm
01:34 21.1 °C 17.4 °C 1015.0 hPa SO 6.9 km/h 9.7 km/h 79.6% 0.0 mm
01:39 21.1 °C 17.5 °C 1014.9 hPa SO 6.9 km/h 9.7 km/h 80.1% 0.0 mm
01:44 21 °C 17.6 °C 1014.9 hPa SO 6.5 km/h 9.7 km/h 81% 0.0 mm
01:49 21 °C 17.6 °C 1014.9 hPa SO 6.4 km/h 10 km/h 81% 0.0 mm
01:54 21 °C 17.6 °C 1014.8 hPa SO 5.8 km/h 9.7 km/h 81% 0.0 mm
01:59 21 °C 17.6 °C 1014.8 hPa SO 5.5 km/h 9.7 km/h 81% 0.0 mm
02:04 20.9 °C 17.5 °C 1014.8 hPa SSO 4.7 km/h 11.1 km/h 81% 0.0 mm
02:09 20.9 °C 17.5 °C 1014.8 hPa SSO 4.9 km/h 11.3 km/h 81% 0.0 mm
02:14 20.9 °C 17.5 °C 1014.8 hPa SSO 6.4 km/h 11.3 km/h 80.8% 0.0 mm
02:19 20.9 °C 17.3 °C 1014.9 hPa SSO 6.3 km/h 8 km/h 80% 0.0 mm
02:24 20.9 °C 17.5 °C 1014.9 hPa OSO 5 km/h 8 km/h 80.9% 0.0 mm
02:29 20.8 °C 17.5 °C 1014.9 hPa OSO 4.7 km/h 8 km/h 81% 0.0 mm
02:34 20.8 °C 17.6 °C 1015.0 hPa OSO 3.2 km/h 9.5 km/h 82% 0.0 mm
02:39 20.8 °C 17.6 °C 1015.0 hPa SO 3.5 km/h 9.7 km/h 82% 0.0 mm
02:44 20.8 °C 17.6 °C 1015.0 hPa SSO 5 km/h 11.1 km/h 82% 0.0 mm
02:49 20.7 °C 17.5 °C 1015.1 hPa SSO 5 km/h 11.3 km/h 82% 0.0 mm
02:54 20.7 °C 17.5 °C 1015.1 hPa SO 5 km/h 11.1 km/h 82% 0.0 mm
02:59 20.6 °C 17.5 °C 1015.1 hPa SO 5 km/h 11.3 km/h 82% 0.0 mm
03:04 20.6 °C 17.4 °C 1015.1 hPa SSO 5 km/h 9.3 km/h 82% 0.0 mm
03:09 20.6 °C 17.4 °C 1015.0 hPa SSO 5 km/h 9.7 km/h 82% 0.0 mm
03:14 20.5 °C 17.3 °C 1015.0 hPa SSO 5 km/h 8 km/h 82% 0.0 mm
03:19 20.4 °C 17.3 °C 1015.0 hPa SSO 5 km/h 8 km/h 82.7% 0.0 mm
03:24 20.3 °C 17.2 °C 1014.8 hPa SO 5 km/h 8.4 km/h 82.5% 0.0 mm
03:29 20.3 °C 17.1 °C 1014.8 hPa SO 5.1 km/h 9.5 km/h 82% 0.0 mm
03:34 20.3 °C 17 °C 1014.8 hPa SO 5.8 km/h 9.7 km/h 81.5% 0.0 mm
03:39 20.3 °C 16.9 °C 1014.8 hPa SO 5.7 km/h 9.7 km/h 81% 0.0 mm
03:44 20.3 °C 16.9 °C 1014.8 hPa SSO 5 km/h 8 km/h 81% 0.0 mm
03:49 20.3 °C 16.9 °C 1014.8 hPa SSO 5 km/h 8 km/h 81% 0.0 mm
03:54 20.2 °C 16.9 °C 1014.6 hPa Sur 5 km/h 8 km/h 81% 0.0 mm
03:59 20.2 °C 16.8 °C 1014.6 hPa SSO 5 km/h 8.4 km/h 81% 0.0 mm
04:04 20.2 °C 16.8 °C 1014.7 hPa SSO 5 km/h 8 km/h 81% 0.0 mm
04:09 20.2 °C 16.8 °C 1014.7 hPa SSO 4.8 km/h 8 km/h 81% 0.0 mm
04:14 20.1 °C 16.7 °C 1014.7 hPa SSO 3.9 km/h 8 km/h 81% 0.0 mm
04:19 20 °C 16.6 °C 1014.7 hPa SSO 3.2 km/h 3.9 km/h 81% 0.0 mm
04:24 19.9 °C 16.6 °C 1014.7 hPa Calm   3.2 km/h 81% 0.0 mm
04:29 19.9 °C 16.5 °C 1014.7 hPa Calm   3.9 km/h 81% 0.0 mm
04:34 19.8 °C 16.4 °C 1014.7 hPa Calm   3.7 km/h 81% 0.0 mm
04:39 19.7 °C 16.3 °C 1014.7 hPa Calm   3.2 km/h 81% 0.0 mm
04:44 19.7 °C 16.4 °C 1014.7 hPa Calm   1.6 km/h 81.4% 0.0 mm
04:49 19.6 °C 16.4 °C 1014.7 hPa Calm   5.6 km/h 81.7% 0.0 mm
04:54 19.5 °C 16.3 °C 1014.6 hPa Calm   5.6 km/h 81.7% 0.0 mm
04:59 19.4 °C 16.2 °C 1014.6 hPa SSO 0.6 km/h 5.8 km/h 82% 0.0 mm
05:04 19.4 °C 16.4 °C 1014.6 hPa Sur 3.2 km/h 7.4 km/h 82.6% 0.0 mm
05:09 19.3 °C 16.3 °C 1014.6 hPa Sur 3.5 km/h 8 km/h 83% 0.0 mm
05:14 19.3 °C 16.3 °C 1014.6 hPa Sur 4.7 km/h 8 km/h 83% 0.0 mm
05:19 19.2 °C 16.2 °C 1014.7 hPa Sur 4.4 km/h 6.4 km/h 83% 0.0 mm
05:24 19.2 °C 16.2 °C 1014.7 hPa SSE 3.2 km/h 5.8 km/h 83% 0.0 mm
05:29 19.2 °C 16.2 °C 1014.7 hPa SSE 3.2 km/h 6.4 km/h 83% 0.0 mm
05:34 19.1 °C 16.2 °C 1014.8 hPa SSE 2.9 km/h 3.9 km/h 83% 0.0 mm
05:39 19.1 °C 16.2 °C 1014.8 hPa SSE 2.8 km/h 5.8 km/h 83.7% 0.0 mm
05:44 19 °C 16.2 °C 1014.8 hPa OSO 2.2 km/h 7.4 km/h 84% 0.0 mm
05:49 19 °C 16.2 °C 1014.8 hPa OSO 2.5 km/h 8 km/h 84% 0.0 mm
05:54 19 °C 16.2 °C 1014.8 hPa OSO 3.9 km/h 8.4 km/h 84% 0.0 mm
05:59 19 °C 16.2 °C 1014.8 hPa SSO 4 km/h 8 km/h 84% 0.0 mm
06:04 19 °C 16.2 °C 1014.8 hPa SSO 4.7 km/h 11.1 km/h 84% 0.0 mm
06:09 19 °C 16.2 °C 1014.6 hPa SSO 5 km/h 11.3 km/h 84% 0.0 mm
06:14 19 °C 16.2 °C 1014.6 hPa Sur 6.9 km/h 9.7 km/h 83.9% 0.0 mm
06:19 18.9 °C 16 °C 1014.7 hPa Sur 6.6 km/h 8 km/h 83% 0.0 mm
06:24 18.9 °C 15.9 °C 1014.7 hPa SSE 5 km/h 8.4 km/h 83% 0.0 mm
06:29 18.8 °C 15.8 °C 1014.7 hPa SSE 4.7 km/h 8 km/h 83% 0.0 mm
06:34 18.7 °C 15.8 °C 1015.0 hPa SSE 3.2 km/h 4.8 km/h 83% 0.0 mm
06:39 18.7 °C 15.9 °C 1015.0 hPa SSE 3.1 km/h 5.6 km/h 83.9% 0.0 mm
06:44 18.6 °C 15.8 °C 1015.0 hPa SSE 2.2 km/h 4.8 km/h 84% 0.0 mm
06:49 18.4 °C 15.8 °C 1015.0 hPa SSE 2.2 km/h 6.4 km/h 84.9% 0.0 mm
06:54 18.4 °C 15.8 °C 1015.0 hPa SSE 2.2 km/h 8 km/h 85% 0.0 mm
06:59 18.4 °C 15.9 °C 1015.0 hPa SSE 2.7 km/h 8 km/h 85% 0.0 mm
07:04 18.5 °C 15.9 °C 1015.1 hPa SSE 4.6 km/h 6.4 km/h 84.6% 0.0 mm
07:09 18.6 °C 15.8 °C 1015.1 hPa Sur 4.5 km/h 6.4 km/h 84% 0.0 mm
07:14 18.6 °C 15.8 °C 1015.1 hPa SSO 3.9 km/h 6.4 km/h 84% 0.0 mm
07:19 18.6 °C 15.8 °C 1015.1 hPa Sur 3.6 km/h 5.6 km/h 84% 0.0 mm
07:24 18.6 °C 15.8 °C 1015.1 hPa SSE 2.2 km/h 6.4 km/h 84% 0.0 mm
07:29 18.6 °C 15.6 °C 1015.1 hPa SSE 2.7 km/h 9.3 km/h 83.1% 0.0 mm
07:34 18.4 °C 15.5 °C 1015.2 hPa SSE 4.7 km/h 9.7 km/h 83% 0.0 mm
07:39 18.3 °C 15.5 °C 1015.2 hPa SSE 4.8 km/h 9.3 km/h 83.4% 0.0 mm
07:44 18.2 °C 15.5 °C 1015.2 hPa SSE 5.8 km/h 11.1 km/h 84% 0.0 mm
07:49 18.1 °C 15.3 °C 1015.2 hPa SSE 6 km/h 13 km/h 84% 0.0 mm
07:54 17.9 °C 15.2 °C 1015.0 hPa SSE 7.6 km/h 13 km/h 84.2% 0.0 mm
07:59 17.8 °C 15.2 °C 1015.0 hPa Sur 7.4 km/h 12.9 km/h 85% 0.0 mm
08:04 17.7 °C 15.2 °C 1015.4 hPa SO 6.9 km/h 9.7 km/h 85.2% 0.0 mm
08:09 17.8 °C 15.4 °C 1015.4 hPa SO 6.6 km/h 8.4 km/h 86% 0.0 mm
08:14 17.9 °C 15.5 °C 1015.4 hPa OSO 4.7 km/h 9.5 km/h 85.9% 0.0 mm
08:19 18 °C 15.4 °C 1015.7 hPa SO 4.7 km/h 9.7 km/h 85% 0.0 mm
08:24 18.1 °C 15.5 °C 1015.7 hPa OSO 5 km/h 9.7 km/h 85% 0.0 mm
08:29 18.2 °C 15.6 °C 1015.7 hPa SO 4.9 km/h 8.4 km/h 85% 0.0 mm
08:34 18.2 °C 15.6 °C 1015.9 hPa SSO 4.7 km/h 8 km/h 85% 0.0 mm
08:39 18.3 °C 15.7 °C 1015.9 hPa Sur 4.5 km/h 8 km/h 84.6% 0.0 mm
08:44 18.4 °C 15.5 °C 1015.9 hPa SSE 3.9 km/h 10 km/h 83.4% 0.0 mm
08:49 18.3 °C 15.4 °C 1016.0 hPa SSE 4.3 km/h 11.1 km/h 83% 0.0 mm
08:54 18.2 °C 15.2 °C 1016.0 hPa SSE 6.9 km/h 13 km/h 83% 0.0 mm
08:59 18.1 °C 15.2 °C 1016.0 hPa Sur 7.2 km/h 13 km/h 83.5% 0.0 mm
09:04 18 °C 15.1 °C 1016.2 hPa SSO 8.4 km/h 11.9 km/h 83.3% 0.0 mm
09:09 18 °C 15.2 °C 1016.2 hPa Sur 8.2 km/h 13 km/h 83.8% 0.0 mm
09:14 18.1 °C 15.2 °C 1016.2 hPa Sur 7.6 km/h 13 km/h 83.4% 0.0 mm
09:19 18.2 °C 15.3 °C 1016.2 hPa SSE 7.7 km/h 13 km/h 83% 0.0 mm
09:24 18.3 °C 15.4 °C 1016.0 hPa Sur 8.4 km/h 12.9 km/h 82.6% 0.0 mm
09:29 18.6 °C 15.3 °C 1016.0 hPa SSO 8.2 km/h 13 km/h 81.5% 0.0 mm
09:34 18.7 °C 15.4 °C 1016.1 hPa SO 7.6 km/h 12.9 km/h 81.2% 0.0 mm
09:39 18.8 °C 15.4 °C 1016.1 hPa OSO 7.3 km/h 11.9 km/h 80.6% 0.0 mm
09:44 19 °C 15.3 °C 1016.1 hPa OSO 5.8 km/h 11.3 km/h 79.4% 0.0 mm
09:49 19.1 °C 15.4 °C 1016.2 hPa OSO 5.8 km/h 11.3 km/h 79% 0.0 mm
09:54 19.3 °C 15.5 °C 1016.2 hPa SO 5.8 km/h 8 km/h 78.7% 0.0 mm
09:59 19.5 °C 15.5 °C 1016.2 hPa SO 5.4 km/h 8 km/h 77.9% 0.0 mm
10:04 19.8 °C 15.6 °C 1016.3 hPa Oeste 3.9 km/h 8 km/h 76.9% 0.0 mm
10:09 20 °C 15.7 °C 1016.3 hPa SSO 3.7 km/h 6.4 km/h 76% 0.0 mm
10:14 20.3 °C 15.7 °C 1016.3 hPa OSO 2.9 km/h 7.6 km/h 74.6% 0.0 mm
10:19 20.6 °C 15.7 °C 1016.4 hPa ONO 3 km/h 8 km/h 73.3% 0.0 mm
10:24 20.8 °C 15.6 °C 1016.4 hPa ONO 3.2 km/h 8 km/h 72.1% 0.0 mm
10:29 21 °C 15.7 °C 1016.4 hPa OSO 3.3 km/h 8 km/h 71.7% 0.0 mm
10:34 21.2 °C 15.5 °C 1016.4 hPa OSO 3.9 km/h 8 km/h 69.9% 0.0 mm
10:39 21.6 °C 15.4 °C 1016.4 hPa Oeste 3.8 km/h 7.6 km/h 68.1% 0.0 mm
10:44 21.7 °C 15.5 °C 1016.4 hPa Oeste 3.2 km/h 9.5 km/h 67.7% 0.0 mm
10:49 21.8 °C 15.5 °C 1016.5 hPa OSO 3.2 km/h 9.7 km/h 67.2% 0.0 mm
10:54 22.2 °C 15.8 °C 1016.5 hPa OSO 3.2 km/h 4.8 km/h 67.1% 0.0 mm
10:59 22.7 °C 15.8 °C 1016.5 hPa ENE 3.2 km/h 5.8 km/h 64.9% 0.0 mm
11:04 23.2 °C 15.7 °C 1016.7 hPa ENE 2.9 km/h 7.4 km/h 63% 0.0 mm
11:09 23.4 °C 15.7 °C 1016.7 hPa ENE 2.9 km/h 8 km/h 61.7% 0.0 mm
11:14 23.7 °C 15.7 °C 1016.7 hPa Este 2.9 km/h 6.4 km/h 61% 0.0 mm
11:19 24.1 °C 15.9 °C 1016.7 hPa NE 3 km/h 8.4 km/h 60.5% 0.0 mm
11:24 24.1 °C 15.9 °C 1016.7 hPa ENE 3.2 km/h 11.1 km/h 60.2% 0.0 mm
11:29 24.1 °C 15.8 °C 1016.7 hPa ESE 3.3 km/h 11.3 km/h 60% 0.0 mm
11:34 24.2 °C 15.3 °C 1016.8 hPa ESE 3.9 km/h 7.4 km/h 57.7% 0.0 mm
11:39 24.3 °C 14.5 °C 1016.8 hPa SE 3.9 km/h 8.4 km/h 54.2% 0.0 mm
11:44 24.5 °C 14.3 °C 1016.8 hPa Este 3.9 km/h 8 km/h 53.1% 0.0 mm
11:49 24.8 °C 13.7 °C 1016.9 hPa Este 3.7 km/h 8 km/h 50.2% 0.0 mm
11:54 24.9 °C 13.8 °C 1016.9 hPa Este 3.2 km/h 9.5 km/h 50% 0.0 mm
11:59 25.2 °C 13.9 °C 1016.9 hPa ESE 3.4 km/h 9.7 km/h 49.5% 0.0 mm
12:04 25.3 °C 13.8 °C 1016.9 hPa ESE 3.9 km/h 9.7 km/h 48.9% 0.0 mm
12:09 25.4 °C 13.3 °C 1016.8 hPa Sur 4 km/h 8 km/h 47% 0.0 mm
12:14 25.6 °C 13.5 °C 1016.8 hPa SE 4.7 km/h 9.3 km/h 47% 0.0 mm
12:19 25.9 °C 13.2 °C 1016.8 hPa ENE 4.5 km/h 9.7 km/h 45.5% 0.0 mm
12:24 26.2 °C 13.5 °C 1016.6 hPa Este 3.9 km/h 8 km/h 45.5% 0.0 mm
12:29 26.3 °C 13.3 °C 1016.6 hPa SSE 4 km/h 10 km/h 44.5% 0.0 mm
12:34 26.4 °C 13.5 °C 1016.6 hPa ONO 4.7 km/h 9.7 km/h 45% 0.0 mm
12:39 26.5 °C 13.5 °C 1016.6 hPa Este 4.5 km/h 8.4 km/h 44.6% 0.0 mm
12:44 26.5 °C 13.3 °C 1016.6 hPa ENE 3.9 km/h 8 km/h 44% 0.0 mm
12:49 26.5 °C 13.3 °C 1016.6 hPa Este 4 km/h 8 km/h 44.2% 0.0 mm
12:54 26.6 °C 13.4 °C 1016.5 hPa NE 4.7 km/h 8 km/h 44.1% 0.0 mm
12:59 26.8 °C 13.5 °C 1016.5 hPa SE 4.5 km/h 8.4 km/h 44% 0.0 mm
13:04 26.9 °C 13.6 °C 1016.5 hPa ENE 3.9 km/h 9.3 km/h 44.1% 0.0 mm
13:09 27.1 °C 13.7 °C 1016.5 hPa NE 4 km/h 9.7 km/h 43.9% 0.0 mm
13:14 27.1 °C 13.7 °C 1016.5 hPa NNE 4.7 km/h 10.3 km/h 43.7% 0.0 mm
13:19 27.1 °C 13.8 °C 1016.5 hPa NE 4.9 km/h 11.9 km/h 44.1% 0.0 mm
13:24 27 °C 13.7 °C 1016.4 hPa NNE 6.4 km/h 11.3 km/h 44% 0.0 mm
13:29 27 °C 13.7 °C 1016.4 hPa NE 6.5 km/h 11.9 km/h 44% 0.0 mm
13:34 26.9 °C 13.7 °C 1016.4 hPa NE 6.5 km/h 11.3 km/h 44.3% 0.0 mm
13:39 26.9 °C 13.7 °C 1016.2 hPa NE 6.2 km/h 10.3 km/h 44.3% 0.0 mm
13:44 27.1 °C 13.8 °C 1016.2 hPa NNE 5 km/h 13 km/h 44% 0.0 mm
13:49 27.3 °C 14 °C 1016.2 hPa NNE 5.2 km/h 12.9 km/h 44.1% 0.0 mm
13:54 27.3 °C 14 °C 1016.2 hPa NNE 6.4 km/h 9.7 km/h 44% 0.0 mm
13:59 27.5 °C 14.1 °C 1016.2 hPa NNE 6.1 km/h 11.1 km/h 43.9% 0.0 mm
14:04 27.6 °C 13.9 °C 1016.2 hPa North 4.7 km/h 11.3 km/h 43% 0.0 mm
14:09 27.7 °C 13.9 °C 1016.0 hPa NNO 4.5 km/h 9.7 km/h 42.7% 0.0 mm
14:14 27.8 °C 13.8 °C 1016.0 hPa North 3.9 km/h 11.1 km/h 42% 0.0 mm
14:19 28 °C 13.9 °C 1016.0 hPa North 4 km/h 11.3 km/h 42% 0.0 mm
14:24 28 °C 13.8 °C 1015.8 hPa North 5 km/h 11.3 km/h 41.8% 0.0 mm
14:29 27.9 °C 13.8 °C 1015.8 hPa NO 5.1 km/h 10.3 km/h 42% 0.0 mm
14:34 28.1 °C 13.8 °C 1015.8 hPa NNE 5.8 km/h 14 km/h 41.5% 0.0 mm
14:39 28.2 °C 13.7 °C 1015.4 hPa NE 5.9 km/h 14.8 km/h 41% 0.0 mm
14:44 28.2 °C 13.8 °C 1015.4 hPa ENE 6.4 km/h 12.9 km/h 41.1% 0.0 mm
14:49 28.4 °C 13.8 °C 1015.4 hPa NNE 6.2 km/h 9.7 km/h 40.7% 0.0 mm
14:54 28.7 °C 13.7 °C 1015.2 hPa NNO 4.7 km/h 10 km/h 40% 0.0 mm
14:59 28.8 °C 13.8 °C 1015.2 hPa ENE 4.9 km/h 10 km/h 40% 0.0 mm
15:04 29 °C 13.7 °C 1015.2 hPa NE 5.8 km/h 9.7 km/h 39.3% 0.0 mm
15:09 29.2 °C 13.7 °C 1014.9 hPa NNO 5.5 km/h 8.4 km/h 38.9% 0.0 mm
15:14 29.3 °C 13.5 °C 1014.9 hPa North 3.9 km/h 10 km/h 37.8% 0.0 mm
15:19 29.4 °C 13.2 °C 1014.9 hPa SE 4 km/h 13 km/h 37.2% 0.0 mm
15:24 29.5 °C 13.6 °C 1014.6 hPa NE 5 km/h 12.9 km/h 37.8% 0.0 mm
15:29 29.7 °C 13.5 °C 1014.6 hPa NE 4.9 km/h 10 km/h 37.1% 0.0 mm
15:34 29.9 °C 14.1 °C 1014.6 hPa NE 4.7 km/h 13 km/h 38.3% 0.0 mm
15:39 29.8 °C 14.4 °C 1014.6 hPa NE 4.8 km/h 12.9 km/h 39% 0.0 mm
15:44 29.8 °C 14.5 °C 1014.6 hPa NNE 5.8 km/h 11.3 km/h 39.4% 0.0 mm
15:49 29.8 °C 14.4 °C 1014.6 hPa NE 5.9 km/h 14.8 km/h 39.1% 0.0 mm
15:54 29.7 °C 14.6 °C 1014.5 hPa NNE 6.9 km/h 14.5 km/h 39.8% 0.0 mm
15:59 29.7 °C 14.7 °C 1014.5 hPa NNE 6.9 km/h 14.8 km/h 39.9% 0.0 mm
16:04 29.8 °C 14.4 °C 1014.5 hPa NE 6.9 km/h 14.5 km/h 39.3% 0.0 mm
16:09 29.8 °C 14.4 °C 1014.4 hPa NNE 7.2 km/h 16.7 km/h 39.2% 0.0 mm
16:14 29.8 °C 14.4 °C 1014.4 hPa NNE 8.7 km/h 16.1 km/h 39.1% 0.0 mm
16:19 29.8 °C 14.4 °C 1014.4 hPa NE 8.7 km/h 14.5 km/h 39% 0.0 mm
16:24 29.9 °C 14.5 °C 1014.4 hPa NE 8.7 km/h 16.7 km/h 39% 0.0 mm
16:29 30 °C 14.5 °C 1014.4 hPa NE 8.7 km/h 16.1 km/h 38.9% 0.0 mm
16:34 30 °C 15.1 °C 1014.4 hPa NE 8.7 km/h 17.2 km/h 40.4% 0.0 mm
16:39 29.9 °C 15.9 °C 1014.3 hPa NE 9.1 km/h 20.1 km/h 42.8% 0.0 mm
16:44 29.9 °C 16.8 °C 1014.3 hPa NE 11.1 km/h 20.9 km/h 45.3% 0.0 mm
16:49 29.8 °C 18.2 °C 1014.3 hPa NE 11.1 km/h 19.3 km/h 49.6% 0.0 mm
16:54 29.4 °C 18.5 °C 1014.3 hPa NE 11.1 km/h 24.1 km/h 52% 0.0 mm
16:59 29.1 °C 19.2 °C 1014.3 hPa NE 11.7 km/h 24.1 km/h 55.2% 0.0 mm
17:04 28.8 °C 19.5 °C 1014.3 hPa NE 14 km/h 22.5 km/h 57.3% 0.0 mm
17:09 28.6 °C 19.7 °C 1014.2 hPa NE 14.1 km/h 25.9 km/h 58.5% 0.0 mm
17:14 28.4 °C 19.7 °C 1014.2 hPa NE 14.8 km/h 25.7 km/h 59.5% 0.0 mm
17:19 28.2 °C 19.8 °C 1014.2 hPa NNE 14.5 km/h 24.1 km/h 60.2% 0.0 mm
17:24 28.2 °C 19.8 °C 1014.0 hPa NE 13 km/h 20.9 km/h 60.4% 0.0 mm
17:29 28.3 °C 19.8 °C 1013.9 hPa NE 12.3 km/h 16.1 km/h 60.1% 0.0 mm
17:34 28.3 °C 19.6 °C 1014.1 hPa NE 8.4 km/h 16.7 km/h 59.5% 0.0 mm
17:39 28.2 °C 19.5 °C 1014.1 hPa NE 8.4 km/h 16.7 km/h 59% 0.0 mm
17:44 28.2 °C 18.9 °C 1014.1 hPa ESE 8.7 km/h 16.1 km/h 57.1% 0.0 mm
17:49 28.2 °C 18.8 °C 1014.1 hPa NE 8 km/h 11.1 km/h 56.7% 0.0 mm
17:54 28.3 °C 19.1 °C 1014.1 hPa NE 4.7 km/h 18.3 km/h 57.7% 0.0 mm
17:59 28.1 °C 19.6 °C 1014.1 hPa NE 5.6 km/h 20.9 km/h 60% 0.0 mm
18:04 27.8 °C 19.5 °C 1014.1 hPa NE 9.5 km/h 22.5 km/h 60.7% 0.0 mm
18:09 27.6 °C 18.9 °C 1013.9 hPa ENE 9.6 km/h 22.5 km/h 59.3% 0.0 mm
18:14 27.7 °C 18.7 °C 1013.9 hPa NNE 10.3 km/h 16.1 km/h 58.2% 0.0 mm
18:19 27.7 °C 18.8 °C 1013.9 hPa NE 10 km/h 19 km/h 58.6% 0.0 mm
18:24 27.6 °C 18.9 °C 1013.8 hPa Este 8.4 km/h 19.3 km/h 58.8% 0.0 mm
18:29 27.6 °C 18.7 °C 1013.8 hPa ENE 8.2 km/h 15.6 km/h 58.6% 0.0 mm
18:34 27.5 °C 18.8 °C 1013.9 hPa NE 7.6 km/h 16.1 km/h 59% 0.0 mm
18:39 27.3 °C 19.3 °C 1013.9 hPa NNE 7.7 km/h 18.5 km/h 61.3% 0.0 mm
18:44 27.1 °C 19.1 °C 1013.9 hPa NE 8.7 km/h 19.3 km/h 62% 0.0 mm
18:49 26.9 °C 19 °C 1014.2 hPa NNE 9.1 km/h 23.3 km/h 62.1% 0.0 mm
18:54 26.6 °C 19.6 °C 1014.2 hPa NE 11.1 km/h 25.6 km/h 65.6% 0.0 mm
18:59 26.1 °C 19.7 °C 1014.2 hPa NE 11.8 km/h 25.7 km/h 67.7% 0.0 mm
19:04 25.8 °C 19.8 °C 1014.4 hPa NE 14.8 km/h 24.5 km/h 69.4% 0.0 mm
19:09 25.5 °C 19.7 °C 1014.4 hPa NE 14.9 km/h 24.5 km/h 70.4% 0.0 mm
19:14 25.3 °C 19.8 °C 1014.4 hPa NE 15.6 km/h 25.9 km/h 71.7% 0.0 mm
19:19 25.2 °C 19.7 °C 1014.5 hPa NE 15.3 km/h 25.7 km/h 72% 0.0 mm
19:24 24.9 °C 19.7 °C 1014.5 hPa NE 14 km/h 24.1 km/h 72.5% 0.0 mm
19:29 24.8 °C 19.6 °C 1014.5 hPa NE 14 km/h 24.1 km/h 73% 0.0 mm
19:34 24.7 °C 19.7 °C 1014.5 hPa NE 13.7 km/h 22.5 km/h 73.9% 0.0 mm
19:39 24.5 °C 19.6 °C 1014.4 hPa NE 13.6 km/h 22.5 km/h 74.1% 0.0 mm
19:44 24.4 °C 19.6 °C 1014.4 hPa NE 13 km/h 22.5 km/h 75% 0.0 mm
19:49 24.3 °C 19.7 °C 1014.4 hPa NE 12.9 km/h 22.5 km/h 75.5% 0.0 mm
19:54 24.2 °C 19.7 °C 1014.4 hPa NE 12.2 km/h 20.9 km/h 76% 0.0 mm
19:59 24.1 °C 19.8 °C 1014.4 hPa NE 11.8 km/h 19.3 km/h 76.9% 0.0 mm
20:04 23.9 °C 19.7 °C 1014.4 hPa NE 10.3 km/h 18.5 km/h 77.2% 0.0 mm
20:09 23.8 °C 19.7 °C 1014.4 hPa NE 10.3 km/h 19.3 km/h 78% 0.0 mm
20:14 23.7 °C 19.6 °C 1014.4 hPa NNE 10.3 km/h 18 km/h 78% 0.0 mm
20:19 23.6 °C 19.6 °C 1014.5 hPa NE 10.4 km/h 20.4 km/h 78.4% 0.0 mm
20:24 23.4 °C 19.6 °C 1014.5 hPa NE 11.1 km/h 20.9 km/h 79% 0.0 mm
20:29 23.3 °C 19.7 °C 1014.5 hPa NNE 11 km/h 16.7 km/h 79.7% 0.0 mm
20:34 23.3 °C 19.7 °C 1014.7 hPa NE 10.3 km/h 16.7 km/h 80.1% 0.0 mm
20:39 23.2 °C 19.8 °C 1014.7 hPa NNE 10.3 km/h 18.5 km/h 81% 0.0 mm
20:44 23.1 °C 19.7 °C 1014.7 hPa NNE 10.3 km/h 19.3 km/h 81.4% 0.0 mm
20:49 23 °C 19.7 °C 1014.9 hPa NE 10.5 km/h 19.3 km/h 82% 0.0 mm
20:54 22.9 °C 19.7 °C 1014.9 hPa NNE 11.1 km/h 17.7 km/h 82.3% 0.0 mm
20:59 22.8 °C 19.8 °C 1014.9 hPa NE 11.1 km/h 16.7 km/h 83% 0.0 mm
21:04 22.8 °C 19.7 °C 1014.9 hPa NE 11.1 km/h 16.7 km/h 83% 0.0 mm
21:09 22.7 °C 19.7 °C 1014.9 hPa NE 10.8 km/h 16.1 km/h 83.1% 0.0 mm
21:14 22.7 °C 19.8 °C 1014.9 hPa NE 9.5 km/h 14.5 km/h 84% 0.0 mm
21:19 22.7 °C 19.8 °C 1015.1 hPa NE 9.3 km/h 14.8 km/h 84% 0.0 mm
21:24 22.6 °C 19.8 °C 1015.1 hPa NNE 8.4 km/h 14.5 km/h 84% 0.0 mm
21:29 22.6 °C 19.7 °C 1015.1 hPa NNE 8.2 km/h 11.9 km/h 84% 0.0 mm
21:34 22.5 °C 19.7 °C 1015.4 hPa NNE 7.6 km/h 13.7 km/h 84.3% 0.0 mm
21:39 22.4 °C 19.8 °C 1015.4 hPa NNE 7.6 km/h 14.5 km/h 85% 0.0 mm
21:44 22.4 °C 19.8 °C 1015.4 hPa NNE 7.6 km/h 11.3 km/h 85% 0.0 mm
21:49 22.4 °C 19.8 °C 1015.5 hPa NE 7.4 km/h 11.9 km/h 85% 0.0 mm
21:54 22.4 °C 19.8 °C 1015.5 hPa NNE 6.5 km/h 11.3 km/h 85% 0.0 mm
21:59 22.3 °C 19.7 °C 1015.5 hPa NNE 6.2 km/h 8.4 km/h 85% 0.0 mm
22:04 22.3 °C 19.7 °C 1015.7 hPa NNE 5 km/h 9.3 km/h 85% 0.0 mm
22:09 22.3 °C 19.8 °C 1015.7 hPa NNE 5 km/h 9.7 km/h 86% 0.0 mm
22:14 22.3 °C 19.8 °C 1015.7 hPa NNE 5 km/h 8 km/h 86% 0.0 mm
22:19 22.2 °C 19.7 °C 1015.7 hPa NNE 4.8 km/h 8 km/h 86% 0.0 mm
22:24 22.2 °C 19.7 °C 1015.6 hPa NE 3.9 km/h 8 km/h 86% 0.0 mm
22:29 22.2 °C 19.7 °C 1015.6 hPa NNE 3.7 km/h 8 km/h 86% 0.0 mm
22:34 22.2 °C 19.7 °C 1015.6 hPa NNE 2.9 km/h 5.8 km/h 86% 0.0 mm
22:39 22.2 °C 19.7 °C 1015.6 hPa NNE 3.1 km/h 6.4 km/h 86% 0.0 mm
22:44 22.1 °C 19.7 °C 1015.6 hPa NNE 3.9 km/h 7.4 km/h 86% 0.0 mm
22:49 22.1 °C 19.7 °C 1015.8 hPa NNE 3.7 km/h 8 km/h 86% 0.0 mm
22:54 22 °C 19.6 °C 1015.8 hPa NNE 2.9 km/h 4.7 km/h 86% 0.0 mm
22:59 22 °C 19.6 °C 1015.8 hPa NNE 2.9 km/h 4.8 km/h 86% 0.0 mm
23:04 22 °C 19.7 °C 1015.9 hPa NNE 2.9 km/h 5.6 km/h 86.9% 0.0 mm
23:09 22 °C 19.7 °C 1015.9 hPa North 2.8 km/h 5.6 km/h 87% 0.0 mm
23:14 22 °C 19.7 °C 1015.9 hPa North 2.2 km/h 4.8 km/h 87% 0.0 mm
23:19 21.9 °C 19.6 °C 1015.9 hPa North 2.2 km/h 4.8 km/h 87% 0.0 mm
23:24 21.9 °C 19.6 °C 1015.9 hPa North 2.2 km/h 3.2 km/h 87% 0.0 mm
23:29 21.9 °C 19.6 °C 1015.9 hPa North 1.9 km/h 3.7 km/h 87% 0.0 mm
23:34 21.9 °C 19.6 °C 1015.9 hPa Calm   4.7 km/h 87% 0.0 mm
23:39 21.9 °C 19.6 °C 1015.8 hPa North 0.4 km/h 4.8 km/h 87% 0.0 mm
23:44 21.9 °C 19.6 °C 1015.8 hPa North 2.2 km/h 4.7 km/h 87% 0.0 mm
23:49 21.9 °C 19.6 °C 1015.8 hPa North 2.2 km/h 5.6 km/h 87% 0.0 mm
23:54 21.9 °C 19.6 °C 1015.8 hPa North 2.2 km/h 4.8 km/h 87% 0.0 mm
23:59 21.9 °C 19.6 °C 1015.8 hPa NO 2.3 km/h 7.4 km/h 87% 0.0 mm
Murcia-Puente Tocinos, España
Compliments of Weather Underground - 3 mb

La estación de MeteoMurcia.com, publica sus datos en los siguientes proyectos:

Weather Underground PWS IMURCIAP2 Meteoclimatic www.awekas.at

W3Counter
Web Analytics